Dublin, OH (43016)

1:04 PM EDT on April 30, 2017 (GMT -0400)
Sawmill Forest | | Change Station

Elev 909 ft 40.13 °N, 83.09 °W | Updated 2 minutes ago

Mostly Cloudy
Mostly Cloudy
81.9 °F
Feels Like 84 °F
N
2.6
Wind Variable Wind from SW

Today
High -- | Low -- °F
--% Chance of Precip.
Yesterday
High -- | Low -- °F
Precip. -- in
Pressure 29.92 in
Visibility 10.0 miles
Clouds Mostly Cloudy 5000 ft
Mostly Cloudy 6000 ft
Heat Index 84 °F
Dew Point 67 °F
Humidity 60%
Rainfall 0.00 in
Snow Depth Not available.
6:33 AM 8:26 PM
Waxing Crescent, 24% visible
METAR KOSU 301653Z 20017G32KT 10SM BKN050 BKN060 27/18 A2993 RMK AO2 PK WND 18034/1640 RAB23E48 SLP130 P0000 T02720183
Pressure 29.92 in
Visibility 10.0 miles
Clouds Mostly Cloudy 5000 ft
Mostly Cloudy 6000 ft
Heat Index 84 °F
Dew Point 67 °F
Humidity 60%
Rainfall 0.00 in
Snow Depth Not available.
6:33 AM 8:26 PM
Waxing Crescent, 24% visible
METAR KOSU 301653Z 20017G32KT 10SM BKN050 BKN060 27/18 A2993 RMK AO2 PK WND 18034/1640 RAB23E48 SLP130 P0000 T02720183

Get Severe Weather Alerts

Thanks for signing up!

Be on the lookout for a verification email in your inbox.

You'll start receiving the daily forecast at 8 AM.

×

10-Day Weather Forecast

Almanac

Astronomy

Apr. 30, 2017 Rise Set
Actual Time
Civil Twilight
Nautical Twilight
Astronomical Twilight
Moon
Length of Visible Light
Length of Day
Tomorrow will be .
, % of the Moon is Illuminated

Today's Extremes

State Highs State Lows

Community

WunderPhotos

WunderBlog® & News

Nearby

Air Quality

  Air Quality AQ Index Pollutant
Not available.

Snow Depth

Station Depth Elevation

Earthquake Activity

City Distance Mag. Time & Date
Minimum magnitude displayed is 2.5.

Coastal Water Temperatures

Place Temperature

Stations

Nearby Weather Stations

Station Location Temp. Windchill Dew Point Humidity Wind Precip. Elev Updated Type
                   

Watches & Warnings

There are currently no watches in effect.